Terminal Aerodrome Forecast
Issued by NWS

Current Version | Previous Version | Text Only | Print | Product List | Glossary On
Versions: 1 2 3 4 5 6 7 8 9 10 11 12 13 14 15 16 17 18 19 20 21 22 23 24 25 26 27 28 29 30 31 32
000
FTUS41 KBOX 261732
TAFHYA
TAF
KHYA 261732Z 2618/2718 05015G23KT 2SM +RA OVC008
     FM262100 04019G33KT 1SM +RA OVC008
     FM270400 36019G35KT 3SM -RA OVC008
     FM270600 34017G37KT P6SM OVC008
     FM270900 33016G33KT P6SM BKN015
     FM271100 32015G25KT P6SM BKN015=

USA.gov is the U.S. government's official web portal to all federal, state and local government web resources and services.